sensor_id;sensor_type;location;lat;lon;timestamp;P1;durP1;ratioP1;P2;durP2;ratioP2
1775;SDS011;885;42.626;23.200;2023-02-08T00:00:20;18.50;;;12.37;;
1775;SDS011;885;42.626;23.200;2023-02-08T00:02:47;16.47;;;11.57;;
1775;SDS011;885;42.626;23.200;2023-02-08T00:05:14;16.30;;;10.83;;
1775;SDS011;885;42.626;23.200;2023-02-08T00:07:42;16.97;;;10.17;;
1775;SDS011;885;42.626;23.200;2023-02-08T00:10:09;13.70;;;9.57;;
1775;SDS011;885;42.626;23.200;2023-02-08T00:12:36;18.13;;;10.90;;
1775;SDS011;885;42.626;23.200;2023-02-08T00:15:04;14.97;;;9.67;;
1775;SDS011;885;42.626;23.200;2023-02-08T00:17:31;18.77;;;10.23;;
1775;SDS011;885;42.626;23.200;2023-02-08T00:19:57;16.50;;;10.03;;
1775;SDS011;885;42.626;23.200;2023-02-08T00:22:24;14.90;;;9.33;;
1775;SDS011;885;42.626;23.200;2023-02-08T00:24:53;17.87;;;10.90;;
1775;SDS011;885;42.626;23.200;2023-02-08T00:27:19;12.03;;;9.17;;
1775;SDS011;885;42.626;23.200;2023-02-08T00:29:46;14.20;;;8.93;;
1775;SDS011;885;42.626;23.200;2023-02-08T00:32:13;14.90;;;9.80;;
1775;SDS011;885;42.626;23.200;2023-02-08T00:34:40;11.27;;;7.53;;
1775;SDS011;885;42.626;23.200;2023-02-08T00:37:06;16.80;;;10.30;;
1775;SDS011;885;42.626;23.200;2023-02-08T00:39:33;14.60;;;10.00;;
1775;SDS011;885;42.626;23.200;2023-02-08T00:42:01;13.20;;;9.90;;
1775;SDS011;885;42.626;23.200;2023-02-08T00:44:28;14.93;;;9.90;;
1775;SDS011;885;42.626;23.200;2023-02-08T00:46:55;16.73;;;9.40;;
1775;SDS011;885;42.626;23.200;2023-02-08T00:49:22;13.70;;;9.80;;
1775;SDS011;885;42.626;23.200;2023-02-08T00:51:48;14.47;;;8.87;;
1775;SDS011;885;42.626;23.200;2023-02-08T00:54:15;15.83;;;11.80;;
1775;SDS011;885;42.626;23.200;2023-02-08T00:56:43;10.10;;;7.90;;
1775;SDS011;885;42.626;23.200;2023-02-08T00:59:12;15.77;;;8.60;;
1775;SDS011;885;42.626;23.200;2023-02-08T01:01:39;18.10;;;9.43;;
1775;SDS011;885;42.626;23.200;2023-02-08T01:04:06;12.70;;;8.50;;
1775;SDS011;885;42.626;23.200;2023-02-08T01:06:33;14.80;;;10.30;;
1775;SDS011;885;42.626;23.200;2023-02-08T01:09:00;15.40;;;9.27;;
1775;SDS011;885;42.626;23.200;2023-02-08T01:11:26;17.30;;;9.97;;
1775;SDS011;885;42.626;23.200;2023-02-08T01:13:54;12.83;;;8.50;;
1775;SDS011;885;42.626;23.200;2023-02-08T01:16:25;12.10;;;8.83;;
1775;SDS011;885;42.626;23.200;2023-02-08T01:18:54;18.03;;;9.23;;
1775;SDS011;885;42.626;23.200;2023-02-08T01:21:24;15.00;;;10.37;;
1775;SDS011;885;42.626;23.200;2023-02-08T01:23:52;14.63;;;8.47;;
1775;SDS011;885;42.626;23.200;2023-02-08T01:26:20;12.67;;;9.43;;
1775;SDS011;885;42.626;23.200;2023-02-08T01:28:48;13.40;;;8.83;;
1775;SDS011;885;42.626;23.200;2023-02-08T01:31:16;14.90;;;8.90;;
1775;SDS011;885;42.626;23.200;2023-02-08T01:33:46;14.67;;;7.90;;
1775;SDS011;885;42.626;23.200;2023-02-08T01:36:14;14.63;;;9.00;;
1775;SDS011;885;42.626;23.200;2023-02-08T01:38:41;11.00;;;9.83;;
1775;SDS011;885;42.626;23.200;2023-02-08T01:41:12;14.47;;;10.00;;
1775;SDS011;885;42.626;23.200;2023-02-08T01:43:59;13.60;;;9.37;;
1775;SDS011;885;42.626;23.200;2023-02-08T01:46:29;13.87;;;10.03;;
1775;SDS011;885;42.626;23.200;2023-02-08T01:48:58;13.60;;;9.70;;
1775;SDS011;885;42.626;23.200;2023-02-08T01:51:30;12.93;;;8.73;;
1775;SDS011;885;42.626;23.200;2023-02-08T01:54:00;15.20;;;9.60;;
1775;SDS011;885;42.626;23.200;2023-02-08T01:56:31;13.40;;;10.10;;
1775;SDS011;885;42.626;23.200;2023-02-08T01:59:09;11.97;;;8.80;;
1775;SDS011;885;42.626;23.200;2023-02-08T02:01:39;15.23;;;10.10;;
1775;SDS011;885;42.626;23.200;2023-02-08T02:04:10;15.67;;;10.63;;
1775;SDS011;885;42.626;23.200;2023-02-08T02:06:38;15.27;;;11.30;;
1775;SDS011;885;42.626;23.200;2023-02-08T02:09:09;17.30;;;10.40;;
1775;SDS011;885;42.626;23.200;2023-02-08T02:11:41;18.63;;;10.80;;
1775;SDS011;885;42.626;23.200;2023-02-08T02:14:09;16.67;;;11.33;;
1775;SDS011;885;42.626;23.200;2023-02-08T02:16:36;19.27;;;12.53;;
1775;SDS011;885;42.626;23.200;2023-02-08T02:19:03;14.70;;;10.60;;
1775;SDS011;885;42.626;23.200;2023-02-08T02:21:37;17.90;;;11.37;;
1775;SDS011;885;42.626;23.200;2023-02-08T02:24:23;17.50;;;11.10;;
1775;SDS011;885;42.626;23.200;2023-02-08T02:30:20;16.23;;;10.73;;
1775;SDS011;885;42.626;23.200;2023-02-08T02:33:09;16.93;;;9.40;;
1775;SDS011;885;42.626;23.200;2023-02-08T02:35:45;15.07;;;11.60;;
1775;SDS011;885;42.626;23.200;2023-02-08T02:38:21;17.37;;;11.07;;
1775;SDS011;885;42.626;23.200;2023-02-08T02:40:59;16.20;;;11.17;;
1775;SDS011;885;42.626;23.200;2023-02-08T02:43:33;18.77;;;12.57;;
1775;SDS011;885;42.626;23.200;2023-02-08T02:46:10;17.73;;;12.73;;
1775;SDS011;885;42.626;23.200;2023-02-08T02:48:49;24.27;;;10.87;;
1775;SDS011;885;42.626;23.200;2023-02-08T02:51:24;18.20;;;11.10;;
1775;SDS011;885;42.626;23.200;2023-02-08T02:53:54;16.20;;;11.73;;
1775;SDS011;885;42.626;23.200;2023-02-08T02:56:26;17.90;;;10.80;;
1775;SDS011;885;42.626;23.200;2023-02-08T02:58:58;16.30;;;11.80;;
1775;SDS011;885;42.626;23.200;2023-02-08T03:01:29;17.10;;;12.20;;
1775;SDS011;885;42.626;23.200;2023-02-08T03:03:57;15.73;;;12.33;;
1775;SDS011;885;42.626;23.200;2023-02-08T03:06:27;17.40;;;12.30;;
1775;SDS011;885;42.626;23.200;2023-02-08T03:11:55;18.23;;;10.57;;
1775;SDS011;885;42.626;23.200;2023-02-08T03:14:33;21.27;;;13.73;;
1775;SDS011;885;42.626;23.200;2023-02-08T03:20:03;23.63;;;13.03;;
1775;SDS011;885;42.626;23.200;2023-02-08T03:22:38;18.80;;;13.30;;
1775;SDS011;885;42.626;23.200;2023-02-08T03:25:11;19.30;;;14.27;;
1775;SDS011;885;42.626;23.200;2023-02-08T03:27:47;21.13;;;13.67;;
1775;SDS011;885;42.626;23.200;2023-02-08T03:30:21;21.30;;;12.00;;
1775;SDS011;885;42.626;23.200;2023-02-08T03:32:56;23.80;;;14.57;;
1775;SDS011;885;42.626;23.200;2023-02-08T03:35:30;17.27;;;14.03;;
1775;SDS011;885;42.626;23.200;2023-02-08T03:38:02;23.47;;;14.20;;
1775;SDS011;885;42.626;23.200;2023-02-08T03:40:32;20.83;;;14.40;;
1775;SDS011;885;42.626;23.200;2023-02-08T03:43:03;20.90;;;13.50;;
1775;SDS011;885;42.626;23.200;2023-02-08T03:45:36;17.27;;;11.97;;
1775;SDS011;885;42.626;23.200;2023-02-08T03:48:06;21.83;;;14.07;;
1775;SDS011;885;42.626;23.200;2023-02-08T03:50:38;22.33;;;13.43;;
1775;SDS011;885;42.626;23.200;2023-02-08T03:53:06;17.73;;;12.23;;
1775;SDS011;885;42.626;23.200;2023-02-08T03:55:34;26.20;;;15.47;;
1775;SDS011;885;42.626;23.200;2023-02-08T03:58:04;22.10;;;15.93;;
1775;SDS011;885;42.626;23.200;2023-02-08T04:00:35;21.67;;;13.40;;
1775;SDS011;885;42.626;23.200;2023-02-08T04:03:05;22.13;;;12.67;;
1775;SDS011;885;42.626;23.200;2023-02-08T04:05:37;19.23;;;13.43;;
1775;SDS011;885;42.626;23.200;2023-02-08T04:08:04;25.27;;;13.27;;
1775;SDS011;885;42.626;23.200;2023-02-08T04:10:31;17.63;;;11.20;;
1775;SDS011;885;42.626;23.200;2023-02-08T04:12:58;22.40;;;13.67;;
1775;SDS011;885;42.626;23.200;2023-02-08T04:15:25;21.37;;;12.97;;
1775;SDS011;885;42.626;23.200;2023-02-08T04:17:52;24.13;;;14.10;;
1775;SDS011;885;42.626;23.200;2023-02-08T04:20:18;22.53;;;13.73;;
1775;SDS011;885;42.626;23.200;2023-02-08T04:22:47;21.13;;;12.43;;
1775;SDS011;885;42.626;23.200;2023-02-08T04:25:14;22.10;;;13.80;;
1775;SDS011;885;42.626;23.200;2023-02-08T04:27:41;23.10;;;14.70;;
1775;SDS011;885;42.626;23.200;2023-02-08T04:30:08;22.37;;;13.77;;
1775;SDS011;885;42.626;23.200;2023-02-08T04:32:36;18.23;;;13.53;;
1775;SDS011;885;42.626;23.200;2023-02-08T04:35:03;26.93;;;15.37;;
1775;SDS011;885;42.626;23.200;2023-02-08T04:37:30;21.30;;;13.40;;
1775;SDS011;885;42.626;23.200;2023-02-08T04:39:59;28.40;;;14.97;;
1775;SDS011;885;42.626;23.200;2023-02-08T04:42:25;20.57;;;13.33;;
1775;SDS011;885;42.626;23.200;2023-02-08T04:44:52;23.97;;;14.87;;
1775;SDS011;885;42.626;23.200;2023-02-08T04:47:19;24.67;;;14.73;;
1775;SDS011;885;42.626;23.200;2023-02-08T04:49:46;17.97;;;11.87;;
1775;SDS011;885;42.626;23.200;2023-02-08T04:52:12;26.77;;;15.17;;
1775;SDS011;885;42.626;23.200;2023-02-08T04:54:39;25.47;;;17.33;;
1775;SDS011;885;42.626;23.200;2023-02-08T04:57:07;27.43;;;14.77;;
1775;SDS011;885;42.626;23.200;2023-02-08T04:59:37;25.23;;;14.40;;
1775;SDS011;885;42.626;23.200;2023-02-08T05:02:04;25.93;;;13.50;;
1775;SDS011;885;42.626;23.200;2023-02-08T05:04:30;26.03;;;15.30;;
1775;SDS011;885;42.626;23.200;2023-02-08T05:06:58;26.17;;;16.23;;
1775;SDS011;885;42.626;23.200;2023-02-08T05:09:24;24.53;;;14.43;;
1775;SDS011;885;42.626;23.200;2023-02-08T05:11:51;21.80;;;13.87;;
1775;SDS011;885;42.626;23.200;2023-02-08T05:14:19;18.80;;;13.77;;
1775;SDS011;885;42.626;23.200;2023-02-08T05:16:46;23.70;;;14.50;;
1775;SDS011;885;42.626;23.200;2023-02-08T05:19:13;22.00;;;15.43;;
1775;SDS011;885;42.626;23.200;2023-02-08T05:21:39;20.97;;;12.97;;
1775;SDS011;885;42.626;23.200;2023-02-08T05:24:06;19.93;;;13.03;;
1775;SDS011;885;42.626;23.200;2023-02-08T05:26:36;22.80;;;15.87;;
1775;SDS011;885;42.626;23.200;2023-02-08T05:29:03;21.27;;;14.37;;
1775;SDS011;885;42.626;23.200;2023-02-08T05:31:31;21.80;;;13.70;;
1775;SDS011;885;42.626;23.200;2023-02-08T05:33:59;23.03;;;13.60;;
1775;SDS011;885;42.626;23.200;2023-02-08T05:36:26;21.20;;;16.20;;
1775;SDS011;885;42.626;23.200;2023-02-08T05:38:53;22.33;;;15.37;;
1775;SDS011;885;42.626;23.200;2023-02-08T05:41:19;21.87;;;13.70;;
1775;SDS011;885;42.626;23.200;2023-02-08T05:43:46;24.47;;;14.10;;
1775;SDS011;885;42.626;23.200;2023-02-08T05:46:13;21.40;;;13.80;;
1775;SDS011;885;42.626;23.200;2023-02-08T05:48:41;23.20;;;15.57;;
1775;SDS011;885;42.626;23.200;2023-02-08T05:51:08;23.50;;;14.50;;
1775;SDS011;885;42.626;23.200;2023-02-08T05:53:35;20.40;;;12.57;;
1775;SDS011;885;42.626;23.200;2023-02-08T05:56:02;19.07;;;13.13;;
1775;SDS011;885;42.626;23.200;2023-02-08T05:58:29;23.53;;;15.13;;
1775;SDS011;885;42.626;23.200;2023-02-08T06:00:56;22.33;;;13.43;;
1775;SDS011;885;42.626;23.200;2023-02-08T06:03:22;19.73;;;13.37;;
1775;SDS011;885;42.626;23.200;2023-02-08T06:05:51;26.10;;;14.73;;
1775;SDS011;885;42.626;23.200;2023-02-08T06:08:18;22.10;;;14.80;;
1775;SDS011;885;42.626;23.200;2023-02-08T06:10:47;28.00;;;16.77;;
1775;SDS011;885;42.626;23.200;2023-02-08T06:13:14;26.17;;;15.33;;
1775;SDS011;885;42.626;23.200;2023-02-08T06:15:42;24.97;;;16.20;;
1775;SDS011;885;42.626;23.200;2023-02-08T06:18:09;29.07;;;17.00;;
1775;SDS011;885;42.626;23.200;2023-02-08T06:20:36;22.70;;;15.13;;
1775;SDS011;885;42.626;23.200;2023-02-08T06:23:04;21.57;;;14.13;;
1775;SDS011;885;42.626;23.200;2023-02-08T06:25:31;18.97;;;14.83;;
1775;SDS011;885;42.626;23.200;2023-02-08T06:27:58;21.73;;;13.20;;
1775;SDS011;885;42.626;23.200;2023-02-08T06:30:25;20.27;;;13.97;;
1775;SDS011;885;42.626;23.200;2023-02-08T06:32:52;22.97;;;15.87;;
1775;SDS011;885;42.626;23.200;2023-02-08T06:35:19;20.37;;;13.27;;
1775;SDS011;885;42.626;23.200;2023-02-08T06:37:45;21.03;;;13.47;;
1775;SDS011;885;42.626;23.200;2023-02-08T06:40:14;24.17;;;15.40;;
1775;SDS011;885;42.626;23.200;2023-02-08T06:42:40;23.10;;;15.20;;
1775;SDS011;885;42.626;23.200;2023-02-08T06:45:08;23.33;;;14.97;;
1775;SDS011;885;42.626;23.200;2023-02-08T06:47:35;24.17;;;15.47;;
1775;SDS011;885;42.626;23.200;2023-02-08T06:50:02;24.93;;;14.13;;
1775;SDS011;885;42.626;23.200;2023-02-08T06:52:29;25.13;;;16.03;;
1775;SDS011;885;42.626;23.200;2023-02-08T06:54:55;22.23;;;16.20;;
1775;SDS011;885;42.626;23.200;2023-02-08T06:57:23;25.07;;;15.10;;
1775;SDS011;885;42.626;23.200;2023-02-08T06:59:50;22.93;;;15.27;;
1775;SDS011;885;42.626;23.200;2023-02-08T07:02:18;22.13;;;15.67;;
1775;SDS011;885;42.626;23.200;2023-02-08T07:04:46;25.17;;;15.97;;
1775;SDS011;885;42.626;23.200;2023-02-08T07:07:13;17.63;;;14.47;;
1775;SDS011;885;42.626;23.200;2023-02-08T07:09:42;27.93;;;16.90;;
1775;SDS011;885;42.626;23.200;2023-02-08T07:12:09;19.23;;;14.20;;
1775;SDS011;885;42.626;23.200;2023-02-08T07:14:38;18.00;;;12.23;;
1775;SDS011;885;42.626;23.200;2023-02-08T07:17:06;20.40;;;13.40;;
1775;SDS011;885;42.626;23.200;2023-02-08T07:19:34;25.70;;;15.27;;
1775;SDS011;885;42.626;23.200;2023-02-08T07:22:00;30.30;;;17.30;;
1775;SDS011;885;42.626;23.200;2023-02-08T07:24:32;25.87;;;16.60;;
1775;SDS011;885;42.626;23.200;2023-02-08T07:26:59;21.37;;;14.20;;
1775;SDS011;885;42.626;23.200;2023-02-08T07:29:27;20.93;;;12.87;;
1775;SDS011;885;42.626;23.200;2023-02-08T07:31:55;17.93;;;12.77;;
1775;SDS011;885;42.626;23.200;2023-02-08T07:34:22;16.70;;;10.93;;
1775;SDS011;885;42.626;23.200;2023-02-08T07:36:49;17.40;;;12.20;;
1775;SDS011;885;42.626;23.200;2023-02-08T07:39:16;18.13;;;13.80;;
1775;SDS011;885;42.626;23.200;2023-02-08T07:41:43;19.33;;;13.73;;
1775;SDS011;885;42.626;23.200;2023-02-08T07:44:10;18.53;;;13.90;;
1775;SDS011;885;42.626;23.200;2023-02-08T07:46:36;15.30;;;12.30;;
1775;SDS011;885;42.626;23.200;2023-02-08T07:49:06;20.77;;;12.77;;
1775;SDS011;885;42.626;23.200;2023-02-08T07:51:33;16.97;;;13.57;;
1775;SDS011;885;42.626;23.200;2023-02-08T07:54:00;16.97;;;13.37;;
1775;SDS011;885;42.626;23.200;2023-02-08T07:56:26;21.27;;;13.37;;
1775;SDS011;885;42.626;23.200;2023-02-08T07:58:55;20.10;;;13.80;;
1775;SDS011;885;42.626;23.200;2023-02-08T08:01:22;25.37;;;14.57;;
1775;SDS011;885;42.626;23.200;2023-02-08T08:03:49;22.57;;;13.83;;
1775;SDS011;885;42.626;23.200;2023-02-08T08:06:18;25.30;;;14.37;;
1775;SDS011;885;42.626;23.200;2023-02-08T08:08:45;22.07;;;13.83;;
1775;SDS011;885;42.626;23.200;2023-02-08T08:11:12;23.03;;;13.30;;
1775;SDS011;885;42.626;23.200;2023-02-08T08:13:39;48.07;;;23.13;;
1775;SDS011;885;42.626;23.200;2023-02-08T08:16:06;36.90;;;23.20;;
1775;SDS011;885;42.626;23.200;2023-02-08T08:18:32;26.53;;;17.00;;
1775;SDS011;885;42.626;23.200;2023-02-08T08:21:00;25.93;;;14.87;;
1775;SDS011;885;42.626;23.200;2023-02-08T08:23:28;25.43;;;16.27;;
1775;SDS011;885;42.626;23.200;2023-02-08T08:25:57;37.93;;;19.50;;
1775;SDS011;885;42.626;23.200;2023-02-08T08:28:25;26.07;;;17.50;;
1775;SDS011;885;42.626;23.200;2023-02-08T08:30:52;29.53;;;16.67;;
1775;SDS011;885;42.626;23.200;2023-02-08T08:33:19;27.77;;;16.97;;
1775;SDS011;885;42.626;23.200;2023-02-08T08:35:46;20.87;;;15.70;;
1775;SDS011;885;42.626;23.200;2023-02-08T08:38:13;27.47;;;19.93;;
1775;SDS011;885;42.626;23.200;2023-02-08T08:40:41;21.70;;;16.17;;
1775;SDS011;885;42.626;23.200;2023-02-08T08:43:08;26.57;;;17.27;;
1775;SDS011;885;42.626;23.200;2023-02-08T08:45:35;27.03;;;18.07;;
1775;SDS011;885;42.626;23.200;2023-02-08T08:48:02;34.00;;;17.93;;
1775;SDS011;885;42.626;23.200;2023-02-08T08:50:29;24.00;;;15.60;;
1775;SDS011;885;42.626;23.200;2023-02-08T08:52:56;25.50;;;16.87;;
1775;SDS011;885;42.626;23.200;2023-02-08T08:55:22;28.83;;;16.87;;
1775;SDS011;885;42.626;23.200;2023-02-08T08:57:52;26.90;;;16.77;;
1775;SDS011;885;42.626;23.200;2023-02-08T09:00:19;27.30;;;19.27;;
1775;SDS011;885;42.626;23.200;2023-02-08T09:02:47;25.40;;;17.67;;
1775;SDS011;885;42.626;23.200;2023-02-08T09:05:13;31.50;;;20.50;;
1775;SDS011;885;42.626;23.200;2023-02-08T09:07:40;29.70;;;17.10;;
1775;SDS011;885;42.626;23.200;2023-02-08T09:10:07;20.40;;;15.40;;
1775;SDS011;885;42.626;23.200;2023-02-08T09:12:34;26.57;;;17.50;;
1775;SDS011;885;42.626;23.200;2023-02-08T09:15:02;25.13;;;16.90;;
1775;SDS011;885;42.626;23.200;2023-02-08T09:17:30;21.90;;;15.80;;
1775;SDS011;885;42.626;23.200;2023-02-08T09:19:57;24.87;;;17.37;;
1775;SDS011;885;42.626;23.200;2023-02-08T09:22:24;25.17;;;17.63;;
1775;SDS011;885;42.626;23.200;2023-02-08T09:24:51;22.70;;;17.50;;
1775;SDS011;885;42.626;23.200;2023-02-08T09:27:18;25.43;;;16.33;;
1775;SDS011;885;42.626;23.200;2023-02-08T09:29:45;31.47;;;19.00;;
1775;SDS011;885;42.626;23.200;2023-02-08T09:32:13;25.57;;;18.50;;
1775;SDS011;885;42.626;23.200;2023-02-08T09:34:40;28.93;;;17.77;;
1775;SDS011;885;42.626;23.200;2023-02-08T09:37:07;26.43;;;17.17;;
1775;SDS011;885;42.626;23.200;2023-02-08T09:39:33;26.77;;;17.90;;
1775;SDS011;885;42.626;23.200;2023-02-08T09:42:07;31.33;;;19.07;;
1775;SDS011;885;42.626;23.200;2023-02-08T09:44:46;24.33;;;15.17;;
1775;SDS011;885;42.626;23.200;2023-02-08T09:47:23;23.47;;;14.67;;
1775;SDS011;885;42.626;23.200;2023-02-08T09:49:56;34.13;;;22.60;;
1775;SDS011;885;42.626;23.200;2023-02-08T09:52:28;32.53;;;18.90;;
1775;SDS011;885;42.626;23.200;2023-02-08T09:55:01;44.77;;;25.57;;
1775;SDS011;885;42.626;23.200;2023-02-08T09:57:38;23.07;;;15.60;;
1775;SDS011;885;42.626;23.200;2023-02-08T10:00:09;25.83;;;16.60;;
1775;SDS011;885;42.626;23.200;2023-02-08T10:02:42;23.83;;;16.10;;
1775;SDS011;885;42.626;23.200;2023-02-08T10:05:10;26.67;;;16.60;;
1775;SDS011;885;42.626;23.200;2023-02-08T10:07:39;25.17;;;18.67;;
1775;SDS011;885;42.626;23.200;2023-02-08T10:10:11;28.40;;;16.47;;
1775;SDS011;885;42.626;23.200;2023-02-08T10:12:42;20.40;;;12.70;;
1775;SDS011;885;42.626;23.200;2023-02-08T10:15:20;17.60;;;13.17;;
1775;SDS011;885;42.626;23.200;2023-02-08T10:21:02;19.83;;;15.10;;
1775;SDS011;885;42.626;23.200;2023-02-08T10:23:47;19.00;;;14.20;;
1775;SDS011;885;42.626;23.200;2023-02-08T10:26:27;27.93;;;19.57;;
1775;SDS011;885;42.626;23.200;2023-02-08T10:32:14;15.03;;;10.77;;
1775;SDS011;885;42.626;23.200;2023-02-08T10:34:53;20.93;;;13.10;;
1775;SDS011;885;42.626;23.200;2023-02-08T10:37:27;23.20;;;15.00;;
1775;SDS011;885;42.626;23.200;2023-02-08T10:39:59;39.97;;;24.47;;
1775;SDS011;885;42.626;23.200;2023-02-08T10:42:40;30.23;;;19.33;;
1775;SDS011;885;42.626;23.200;2023-02-08T10:45:14;17.83;;;12.53;;
1775;SDS011;885;42.626;23.200;2023-02-08T10:47:47;20.30;;;13.00;;
1775;SDS011;885;42.626;23.200;2023-02-08T10:50:18;22.50;;;16.00;;
1775;SDS011;885;42.626;23.200;2023-02-08T10:52:50;17.40;;;12.60;;
1775;SDS011;885;42.626;23.200;2023-02-08T10:55:17;13.67;;;10.50;;
1775;SDS011;885;42.626;23.200;2023-02-08T10:57:46;21.17;;;14.70;;
1775;SDS011;885;42.626;23.200;2023-02-08T11:00:17;17.17;;;14.40;;
1775;SDS011;885;42.626;23.200;2023-02-08T11:02:46;20.40;;;13.37;;
1775;SDS011;885;42.626;23.200;2023-02-08T11:05:17;18.50;;;13.17;;
1775;SDS011;885;42.626;23.200;2023-02-08T11:07:47;23.63;;;14.80;;
1775;SDS011;885;42.626;23.200;2023-02-08T11:10:32;17.77;;;14.40;;
1775;SDS011;885;42.626;23.200;2023-02-08T11:13:01;17.53;;;11.60;;
1775;SDS011;885;42.626;23.200;2023-02-08T11:15:33;15.90;;;12.03;;
1775;SDS011;885;42.626;23.200;2023-02-08T11:18:05;40.53;;;23.63;;
1775;SDS011;885;42.626;23.200;2023-02-08T11:20:40;17.77;;;12.40;;
1775;SDS011;885;42.626;23.200;2023-02-08T11:23:18;11.93;;;10.07;;
1775;SDS011;885;42.626;23.200;2023-02-08T11:25:47;46.17;;;27.67;;
1775;SDS011;885;42.626;23.200;2023-02-08T11:28:22;18.50;;;12.93;;
1775;SDS011;885;42.626;23.200;2023-02-08T11:30:54;21.20;;;15.93;;
1775;SDS011;885;42.626;23.200;2023-02-08T11:33:22;14.50;;;12.07;;
1775;SDS011;885;42.626;23.200;2023-02-08T11:38:22;16.57;;;12.00;;
1775;SDS011;885;42.626;23.200;2023-02-08T11:40:52;19.00;;;15.33;;
1775;SDS011;885;42.626;23.200;2023-02-08T11:43:22;17.10;;;13.10;;
1775;SDS011;885;42.626;23.200;2023-02-08T11:45:51;15.93;;;12.33;;
1775;SDS011;885;42.626;23.200;2023-02-08T11:48:24;12.80;;;11.47;;
1775;SDS011;885;42.626;23.200;2023-02-08T11:50:57;15.87;;;12.20;;
1775;SDS011;885;42.626;23.200;2023-02-08T11:53:27;14.63;;;13.10;;
1775;SDS011;885;42.626;23.200;2023-02-08T11:56:01;15.93;;;13.77;;
1775;SDS011;885;42.626;23.200;2023-02-08T11:58:29;18.20;;;13.70;;
1775;SDS011;885;42.626;23.200;2023-02-08T12:00:58;17.50;;;13.63;;
1775;SDS011;885;42.626;23.200;2023-02-08T12:03:26;16.23;;;12.30;;
1775;SDS011;885;42.626;23.200;2023-02-08T12:06:01;18.37;;;13.03;;
1775;SDS011;885;42.626;23.200;2023-02-08T12:08:52;18.10;;;14.30;;
1775;SDS011;885;42.626;23.200;2023-02-08T12:11:28;17.87;;;13.00;;
1775;SDS011;885;42.626;23.200;2023-02-08T12:14:08;16.13;;;12.43;;
1775;SDS011;885;42.626;23.200;2023-02-08T12:16:51;13.27;;;11.87;;
1775;SDS011;885;42.626;23.200;2023-02-08T12:19:45;15.60;;;13.37;;
1775;SDS011;885;42.626;23.200;2023-02-08T12:22:27;15.40;;;12.57;;
1775;SDS011;885;42.626;23.200;2023-02-08T12:24:58;20.03;;;11.63;;
1775;SDS011;885;42.626;23.200;2023-02-08T12:27:41;12.93;;;11.13;;
1775;SDS011;885;42.626;23.200;2023-02-08T12:30:18;13.10;;;10.70;;
1775;SDS011;885;42.626;23.200;2023-02-08T12:33:02;13.70;;;11.33;;
1775;SDS011;885;42.626;23.200;2023-02-08T12:35:47;16.00;;;11.63;;
1775;SDS011;885;42.626;23.200;2023-02-08T12:38:26;12.63;;;11.20;;
1775;SDS011;885;42.626;23.200;2023-02-08T12:41:25;15.30;;;10.70;;
1775;SDS011;885;42.626;23.200;2023-02-08T12:43:57;14.10;;;11.23;;
1775;SDS011;885;42.626;23.200;2023-02-08T12:52:20;13.07;;;10.23;;
1775;SDS011;885;42.626;23.200;2023-02-08T12:54:57;12.10;;;10.37;;
1775;SDS011;885;42.626;23.200;2023-02-08T12:57:29;16.23;;;10.77;;
1775;SDS011;885;42.626;23.200;2023-02-08T12:59:58;11.43;;;8.07;;
1775;SDS011;885;42.626;23.200;2023-02-08T13:02:29;10.17;;;8.10;;
1775;SDS011;885;42.626;23.200;2023-02-08T13:05:00;13.23;;;10.10;;
1775;SDS011;885;42.626;23.200;2023-02-08T13:07:31;15.80;;;10.93;;
1775;SDS011;885;42.626;23.200;2023-02-08T13:10:03;9.20;;;7.90;;
1775;SDS011;885;42.626;23.200;2023-02-08T13:12:37;15.47;;;9.67;;
1775;SDS011;885;42.626;23.200;2023-02-08T13:15:06;12.53;;;8.83;;
1775;SDS011;885;42.626;23.200;2023-02-08T13:17:41;26.10;;;15.40;;
1775;SDS011;885;42.626;23.200;2023-02-08T13:20:19;10.70;;;7.23;;
1775;SDS011;885;42.626;23.200;2023-02-08T13:22:55;15.80;;;9.93;;
1775;SDS011;885;42.626;23.200;2023-02-08T13:25:27;14.60;;;8.37;;
1775;SDS011;885;42.626;23.200;2023-02-08T13:28:00;11.03;;;8.27;;
1775;SDS011;885;42.626;23.200;2023-02-08T13:30:28;71.97;;;29.70;;
1775;SDS011;885;42.626;23.200;2023-02-08T13:32:55;14.83;;;11.07;;
1775;SDS011;885;42.626;23.200;2023-02-08T13:35:24;10.10;;;7.20;;
1775;SDS011;885;42.626;23.200;2023-02-08T13:37:55;10.37;;;7.70;;
1775;SDS011;885;42.626;23.200;2023-02-08T13:40:27;25.03;;;15.83;;
1775;SDS011;885;42.626;23.200;2023-02-08T13:42:57;23.10;;;14.60;;
1775;SDS011;885;42.626;23.200;2023-02-08T13:45:29;11.37;;;8.97;;
1775;SDS011;885;42.626;23.200;2023-02-08T13:47:59;7.70;;;6.40;;
1775;SDS011;885;42.626;23.200;2023-02-08T13:50:43;10.80;;;8.93;;
1775;SDS011;885;42.626;23.200;2023-02-08T13:53:12;7.70;;;6.90;;
1775;SDS011;885;42.626;23.200;2023-02-08T13:58:35;8.30;;;6.20;;
1775;SDS011;885;42.626;23.200;2023-02-08T14:01:18;9.80;;;6.63;;
1775;SDS011;885;42.626;23.200;2023-02-08T14:06:55;7.63;;;5.87;;
1775;SDS011;885;42.626;23.200;2023-02-08T14:09:27;8.53;;;6.50;;
1775;SDS011;885;42.626;23.200;2023-02-08T14:12:10;12.07;;;7.73;;
1775;SDS011;885;42.626;23.200;2023-02-08T14:14:49;8.27;;;7.50;;
1775;SDS011;885;42.626;23.200;2023-02-08T14:17:48;9.70;;;7.93;;
1775;SDS011;885;42.626;23.200;2023-02-08T14:20:19;9.83;;;7.10;;
1775;SDS011;885;42.626;23.200;2023-02-08T14:22:52;9.17;;;7.77;;
1775;SDS011;885;42.626;23.200;2023-02-08T14:25:21;10.70;;;8.20;;
1775;SDS011;885;42.626;23.200;2023-02-08T14:27:51;11.03;;;8.13;;
1775;SDS011;885;42.626;23.200;2023-02-08T14:30:22;13.87;;;8.40;;
1775;SDS011;885;42.626;23.200;2023-02-08T14:32:53;7.37;;;6.33;;
1775;SDS011;885;42.626;23.200;2023-02-08T14:35:38;9.70;;;6.80;;
1775;SDS011;885;42.626;23.200;2023-02-08T14:40:58;10.97;;;8.27;;
1775;SDS011;885;42.626;23.200;2023-02-08T14:43:29;22.83;;;12.67;;
1775;SDS011;885;42.626;23.200;2023-02-08T14:49:00;14.00;;;9.50;;
1775;SDS011;885;42.626;23.200;2023-02-08T14:51:29;11.67;;;8.47;;
1775;SDS011;885;42.626;23.200;2023-02-08T14:54:03;13.40;;;9.53;;
1775;SDS011;885;42.626;23.200;2023-02-08T14:56:43;23.37;;;16.47;;
1775;SDS011;885;42.626;23.200;2023-02-08T14:59:17;12.80;;;8.80;;
1775;SDS011;885;42.626;23.200;2023-02-08T15:01:49;13.53;;;8.50;;
1775;SDS011;885;42.626;23.200;2023-02-08T15:04:19;10.63;;;8.37;;
1775;SDS011;885;42.626;23.200;2023-02-08T15:07:05;10.23;;;7.90;;
1775;SDS011;885;42.626;23.200;2023-02-08T15:09:43;11.47;;;7.57;;
1775;SDS011;885;42.626;23.200;2023-02-08T15:12:13;9.47;;;7.80;;
1775;SDS011;885;42.626;23.200;2023-02-08T15:14:43;21.20;;;13.10;;
1775;SDS011;885;42.626;23.200;2023-02-08T15:17:18;9.60;;;8.60;;
1775;SDS011;885;42.626;23.200;2023-02-08T15:19:47;11.13;;;8.10;;
1775;SDS011;885;42.626;23.200;2023-02-08T15:22:17;10.23;;;9.13;;
1775;SDS011;885;42.626;23.200;2023-02-08T15:24:52;15.07;;;10.17;;
1775;SDS011;885;42.626;23.200;2023-02-08T15:27:22;11.53;;;10.07;;
1775;SDS011;885;42.626;23.200;2023-02-08T15:29:50;10.67;;;9.03;;
1775;SDS011;885;42.626;23.200;2023-02-08T15:32:17;11.47;;;10.30;;
1775;SDS011;885;42.626;23.200;2023-02-08T15:34:51;12.47;;;8.77;;
1775;SDS011;885;42.626;23.200;2023-02-08T15:37:19;13.17;;;10.17;;
1775;SDS011;885;42.626;23.200;2023-02-08T15:39:48;12.47;;;9.67;;
1775;SDS011;885;42.626;23.200;2023-02-08T15:42:17;14.53;;;10.00;;
1775;SDS011;885;42.626;23.200;2023-02-08T15:44:45;14.40;;;8.90;;